Flight Track Log - Related Links

Times and Time Zones

All times are in EDT time to prevent confusion due to time zone crossing. See the UAL4206 flight status page for this flight to view local times or setup timezone preferences in your user account.

Time Position Orientation Groundspeed Altitude Reporting Facility
EDT Latitude Longitude Course Direction KTS MPH feet Rate Location/Type
Mon 08:20:00 PM 42.9981 -76.3154 211° Southwest  Level FlightAware Approximate
Mon 08:21:00 PM 42.9005 -76.3961 211° Southwest  Level FlightAware Approximate
Mon 08:22:00 PM 42.8027 -76.4766 211° Southwest  Level FlightAware Approximate
Mon 08:23:00 PM 42.7050 -76.5568 211° Southwest  Level FlightAware Approximate
Mon 08:24:00 PM 42.6071 -76.6368 211° Southwest  Level FlightAware Approximate
Mon 08:25:00 PM 42.5091 -76.7162 211° Southwest  Level FlightAware Approximate
Mon 08:26:00 PM 42.4108 -76.7949 211° Southwest  Level FlightAware Approximate
Mon 08:27:00 PM 42.3125 -76.8734 211° Southwest  Level FlightAware Approximate
Mon 08:28:00 PM 42.2156 -76.9549 212° Southwest  Level FlightAware Approximate
Mon 08:29:00 PM 42.1189 -77.0367 212° Southwest  Level FlightAware Approximate
Mon 08:30:00 PM 42.0213 -77.1165 211° Southwest  Level FlightAware Approximate
Mon 08:31:00 PM 41.9232 -77.1950 211° Southwest  Level FlightAware Approximate
Mon 08:32:00 PM 41.8251 -77.2734 211° Southwest  Level FlightAware Approximate
Mon 08:33:00 PM 41.7276 -77.3529 211° Southwest  Level FlightAware Approximate
Mon 08:34:00 PM 41.6300 -77.4321 211° Southwest  Level FlightAware Approximate
Mon 08:35:00 PM 41.5318 -77.5100 210° Southwest  Level FlightAware Approximate
Mon 08:36:00 PM 41.4327 -77.5856 210° Southwest  Level FlightAware Approximate
Mon 08:37:00 PM 41.3335 -77.6610 210° Southwest  Level FlightAware Approximate
Mon 08:38:00 PM 41.2245 -77.7435 210° Southwest  Level FlightAware Approximate
Mon 08:39:00 PM 41.1155 -77.8257 210° Southwest  Level FlightAware Approximate
Mon 08:40:00 PM 41.0063 -77.9074 208° Southwest  Level FlightAware Approximate
Mon 08:41:00 PM 40.8966 -77.9793 139° Southeast  Level FlightAware Approximate
Mon 08:42:00 PM 40.8026 -77.8697 139° Southeast  Level FlightAware Approximate
Mon 08:43:00 PM 40.7048 -77.7660 141° Southeast  Level FlightAware Approximate
Mon 08:44:00 PM 40.6100 -77.6661 141° Southeast  Level FlightAware Approximate
Mon 08:45:00 PM 40.5150 -77.5665 141° Southeast  Level FlightAware Approximate
Mon 08:46:00 PM 40.4190 -77.4689 143° Southeast  Level FlightAware Approximate
Mon 08:47:00 PM 40.3224 -77.3724 143° Southeast  Level FlightAware Approximate
Mon 08:48:00 PM 40.2358 -77.2755 134° Southeast  Level FlightAware Approximate
Mon 08:49:00 PM 40.1477 -77.1809 143° Southeast  Level FlightAware Approximate
Mon 08:50:00 PM 40.0545 -77.1000 180° South  Level FlightAware Approximate
Mon 08:51:00 PM 39.9455 -77.1309 189° South  Level FlightAware Approximate
Mon 08:52:00 PM 39.8349 -77.1659 201° Southwest  Level FlightAware Approximate
Mon 08:53:00 PM 39.7257 -77.2081 194° South  Level FlightAware Approximate
Mon 08:54:00 PM 39.6422 -77.2911 218° Southwest  Level FlightAware Approximate
Mon 08:55:00 PM 39.5444 -77.3333 180° South  Level FlightAware Approximate
Mon 08:56:00 PM 39.4307 -77.3462 186° South  Level FlightAware Approximate
Mon 08:57:00 PM 39.3167 -77.3500 180° South  Level FlightAware Approximate
Mon 08:58:00 PM 39.2025 -77.3500 180° South  Level FlightAware Approximate
Mon 08:59:00 PM 39.0884 -77.3500 180° South  Level FlightAware Approximate
Mon 09:00:00 PM 38.9742 -77.3500 180° South  Level FlightAware Approximate
Mon 09:01:00 PM 38.9474 -77.4599 180° South  Level Estimated
Mon 09:02:00 PM 38.9474 -77.4599 180° South  Level Estimated
Mon 09:03:00 PM 38.9474 -77.4599 345° North  Level Estimated
Mon 09:04:00 PM 38.9474 -77.4599 339° North  Level Estimated
Mon 09:05:00 PM 38.9474 -77.4599 349° North  Level Estimated
Mon 09:06:00 PM 38.9474 -77.4599 349° North  Level Estimated
Mon 09:07:00 PM 38.9474 -77.4599 349° North  Level Estimated
Mon 09:08:00 PM 38.9474 -77.4599 349° North  Level Estimated
Mon 09:09:00 PM 38.9474 -77.4599 349° North  Level Estimated
Mon 09:10:00 PM 38.9474 -77.4599 349° North  Level Estimated
Mon 09:11:00 PM 38.9474 -77.4599 349° North  Level Estimated
Mon 09:12:00 PM 38.9474 -77.4599 349° North  Level Estimated
Mon 09:13:00 PM 38.9474 -77.4599 349° North  Level Estimated
Mon 09:14:00 PM 38.9474 -77.4599 349° North  Level Estimated
Mon 09:15:00 PM 38.9474 -77.4599 349° North  Level Estimated
Mon 09:16:00 PM 38.9474 -77.4599 349° North  Level Estimated
Mon 09:17:00 PM 38.9474 -77.4599 349° North  Level Estimated
Mon 09:18:00 PM 38.9474 -77.4599 349° North  Level Estimated
Mon 09:19:00 PM 38.9474 -77.4599 349° North  Level Estimated
Mon 09:20:00 PM 38.9474 -77.4599 349° North  Level Estimated
Mon 09:21:00 PM 38.9474 -77.4599 349° North  Level Estimated
Mon 09:22:00 PM 38.9474 -77.4599 349° North  Level Estimated

Login

Don't have an account? Register now (free) for customized features, flight alerts, and more!